createdAt,value
2023-04-02T00:02:26.751Z,9.58
2023-04-02T00:05:31.069Z,9.69
2023-04-02T00:08:00.535Z,9.85
2023-04-02T00:10:30.813Z,9.69
2023-04-02T00:13:05.715Z,9.63
2023-04-02T00:15:34.316Z,9.54
2023-04-02T00:18:02.503Z,9.52
2023-04-02T00:20:31.758Z,9.66
2023-04-02T00:22:59.437Z,9.37
2023-04-02T00:25:27.921Z,9.38
2023-04-02T00:27:55.914Z,9.33
2023-04-02T00:30:24.829Z,9.36
2023-04-02T00:32:52.784Z,9.34
2023-04-02T00:35:22.319Z,9.31
2023-04-02T00:37:50.468Z,9.35
2023-04-02T00:40:21.968Z,9.40
2023-04-02T00:42:50.277Z,9.40
2023-04-02T00:45:25.456Z,9.65
2023-04-02T00:47:53.833Z,9.65
2023-04-02T00:50:28.918Z,9.71
2023-04-02T00:52:58.217Z,9.76
2023-04-02T00:55:29.099Z,9.70
2023-04-02T00:57:57.235Z,9.62
2023-04-02T01:00:30.671Z,9.53
2023-04-02T01:03:34.259Z,9.62
2023-04-02T01:06:05.006Z,9.70
2023-04-02T01:08:45.462Z,9.59
2023-04-02T01:11:23.254Z,9.53
2023-04-02T01:13:55.232Z,9.41
2023-04-02T01:16:30.399Z,9.36
2023-04-02T01:19:03.318Z,9.46
2023-04-02T01:21:37.937Z,9.41
2023-04-02T01:24:07.100Z,9.39
2023-04-02T01:26:45.658Z,9.40
2023-04-02T01:29:15.932Z,9.45
2023-04-02T01:31:45.632Z,9.27
2023-04-02T01:34:16.374Z,9.32
2023-04-02T01:36:50.233Z,9.26
2023-04-02T01:39:26.749Z,9.19
2023-04-02T01:42:00.227Z,9.27
2023-04-02T01:44:31.900Z,9.33
2023-04-02T01:47:03.750Z,9.32
2023-04-02T01:49:31.199Z,9.34
2023-04-02T01:51:58.636Z,9.28
2023-04-02T01:54:28.784Z,9.35
2023-04-02T01:56:57.283Z,9.24
2023-04-02T01:59:24.844Z,9.24
2023-04-02T02:01:58.569Z,9.22
2023-04-02T02:04:26.258Z,9.28
2023-04-02T02:06:53.845Z,9.32
2023-04-02T02:09:24.057Z,9.38
2023-04-02T02:11:51.847Z,9.40
2023-04-02T02:14:20.912Z,9.25
2023-04-02T02:16:48.790Z,9.30
2023-04-02T02:19:25.800Z,9.28
2023-04-02T02:21:54.438Z,9.29
2023-04-02T02:24:23.359Z,9.27
2023-04-02T02:27:02.313Z,9.36
2023-04-02T02:29:30.618Z,9.47
2023-04-02T02:31:58.911Z,9.49
2023-04-02T02:34:32.556Z,9.57
2023-04-02T02:37:03.705Z,9.42
2023-04-02T02:39:36.102Z,9.34
2023-04-02T02:42:06.719Z,9.35
2023-04-02T02:44:36.266Z,9.34
2023-04-02T02:47:06.369Z,9.22
2023-04-02T02:49:37.481Z,9.30
2023-04-02T02:52:14.890Z,9.36
2023-04-02T02:54:45.315Z,9.40
2023-04-02T02:57:15.507Z,9.49
2023-04-02T02:59:43.745Z,9.31
2023-04-02T03:02:11.817Z,9.27
2023-04-02T03:04:40.630Z,9.24
2023-04-02T03:07:09.199Z,9.17
2023-04-02T03:09:40.237Z,9.15
2023-04-02T03:12:22.259Z,9.28
2023-04-02T03:14:54.310Z,9.24
2023-04-02T03:17:24.969Z,9.28
2023-04-02T03:19:56.867Z,9.36
2023-04-02T03:22:29.701Z,9.33
2023-04-02T03:25:00.789Z,9.27
2023-04-02T03:27:32.326Z,9.19
2023-04-02T03:30:06.703Z,9.16
2023-04-02T03:32:36.721Z,9.20
2023-04-02T03:35:18.975Z,9.14
2023-04-02T03:37:49.293Z,9.21
2023-04-02T03:40:18.824Z,9.24
2023-04-02T03:42:50.721Z,9.16
2023-04-02T03:45:21.337Z,9.20
2023-04-02T03:47:54.238Z,9.21
2023-04-02T03:50:27.830Z,9.37
2023-04-02T03:52:55.615Z,9.42
2023-04-02T03:55:25.956Z,9.51
2023-04-02T03:57:58.616Z,9.45
2023-04-02T04:00:34.178Z,9.39
2023-04-02T04:03:08.139Z,9.29
2023-04-02T04:05:38.707Z,9.24
2023-04-02T04:08:08.541Z,9.27
2023-04-02T04:10:36.393Z,9.32
2023-04-02T04:13:06.910Z,9.37
2023-04-02T04:15:36.615Z,9.50
2023-04-02T04:18:11.473Z,9.57
2023-04-02T04:20:45.905Z,9.58
2023-04-02T04:23:19.907Z,9.52
2023-04-02T04:25:49.350Z,9.63
2023-04-02T04:28:24.071Z,9.50
2023-04-02T04:30:54.124Z,9.47
2023-04-02T04:33:24.534Z,9.45
2023-04-02T04:35:56.108Z,9.63
2023-04-02T04:38:32.642Z,9.50
2023-04-02T04:41:04.229Z,9.38
2023-04-02T04:43:38.542Z,9.28
2023-04-02T04:46:09.425Z,9.32
2023-04-02T04:48:38.144Z,9.44
2023-04-02T04:51:10.231Z,9.42
2023-04-02T04:53:47.366Z,9.30
2023-04-02T04:56:19.803Z,9.34
2023-04-02T04:58:50.046Z,9.34
2023-04-02T05:01:20.791Z,9.17
2023-04-02T05:03:53.073Z,9.10
2023-04-02T05:06:27.011Z,9.14
2023-04-02T05:08:56.772Z,9.14
2023-04-02T05:11:27.656Z,9.18
2023-04-02T05:13:57.979Z,9.17
2023-04-02T05:16:27.637Z,9.37
2023-04-02T05:18:59.206Z,9.37
2023-04-02T05:21:34.270Z,9.31
2023-04-02T05:24:14.797Z,9.28
2023-04-02T05:26:44.980Z,9.25
2023-04-02T05:29:17.075Z,9.27
2023-04-02T05:31:48.677Z,9.28
2023-04-02T05:34:23.479Z,9.27
2023-04-02T05:36:52.389Z,9.24
2023-04-02T05:39:23.082Z,9.28
2023-04-02T05:41:58.828Z,9.26
2023-04-02T05:44:28.143Z,9.32
2023-04-02T05:46:58.364Z,9.38
2023-04-02T05:49:28.604Z,9.42
2023-04-02T05:51:59.826Z,9.45
2023-04-02T05:54:30.226Z,9.50
2023-04-02T05:57:01.880Z,9.56
2023-04-02T05:59:31.265Z,9.72
2023-04-02T06:02:03.426Z,9.75
2023-04-02T06:04:34.243Z,9.76
2023-04-02T06:07:07.049Z,9.80
2023-04-02T06:09:41.489Z,9.89
2023-04-02T06:12:18.597Z,10.02
2023-04-02T06:14:46.636Z,10.14
2023-04-02T06:17:16.172Z,10.28
2023-04-02T06:19:43.936Z,10.26
2023-04-02T06:22:20.185Z,10.21
2023-04-02T06:24:51.358Z,10.13
2023-04-02T06:27:22.589Z,10.07
2023-04-02T06:29:52.826Z,10.04
2023-04-02T06:32:22.144Z,10.05
2023-04-02T06:34:49.773Z,9.90
2023-04-02T06:37:23.331Z,9.28
2023-04-02T06:39:50.785Z,8.79
2023-04-02T06:42:20.789Z,8.47
2023-04-02T06:44:48.396Z,8.36
2023-04-02T06:47:23.722Z,8.28
2023-04-02T06:49:53.659Z,8.22
2023-04-02T06:52:27.017Z,8.27
2023-04-02T06:54:54.525Z,8.06
2023-04-02T06:57:22.030Z,8.05
2023-04-02T06:59:49.676Z,7.89
2023-04-02T07:02:29.323Z,7.80
2023-04-02T07:05:02.841Z,7.75
2023-04-02T07:07:32.132Z,7.74
2023-04-02T07:09:59.604Z,7.74
2023-04-02T07:12:27.641Z,7.81
2023-04-02T07:14:55.408Z,7.81
2023-04-02T07:17:22.923Z,7.76
2023-04-02T07:19:50.624Z,7.70
2023-04-02T07:22:18.463Z,7.61
2023-04-02T07:24:47.480Z,7.55
2023-04-02T07:27:15.972Z,7.62
2023-04-02T07:29:43.536Z,7.55
2023-04-02T07:32:11.661Z,7.59
2023-04-02T07:34:39.206Z,7.45
2023-04-02T07:37:06.863Z,7.41
2023-04-02T07:39:36.540Z,7.48
2023-04-02T07:42:07.888Z,7.46
2023-04-02T07:44:35.730Z,7.46
2023-04-02T07:47:03.360Z,7.52
2023-04-02T07:49:30.922Z,7.45
2023-04-02T07:51:58.420Z,7.40
2023-04-02T07:54:27.069Z,7.35
2023-04-02T07:56:54.699Z,7.34
2023-04-02T07:59:23.605Z,7.32
2023-04-02T08:01:53.008Z,7.17
2023-04-02T08:04:22.057Z,7.12
2023-04-02T08:06:50.464Z,7.09
2023-04-02T08:09:19.134Z,7.06
2023-04-02T08:11:46.790Z,7.10
2023-04-02T08:14:14.949Z,7.03
2023-04-02T08:16:48.686Z,7.00
2023-04-02T08:19:16.557Z,7.02
2023-04-02T08:21:44.116Z,7.01
2023-04-02T08:24:11.643Z,7.01
2023-04-02T08:26:39.266Z,7.02
2023-04-02T08:29:06.717Z,7.10
2023-04-02T08:31:34.312Z,7.03
2023-04-02T08:34:03.281Z,6.96
2023-04-02T08:36:32.153Z,6.89
2023-04-02T08:38:59.717Z,6.84
2023-04-02T08:41:28.504Z,6.82
2023-04-02T08:44:10.017Z,6.83
2023-04-02T08:46:42.299Z,6.80
2023-04-02T08:49:14.010Z,6.86
2023-04-02T08:51:41.628Z,6.81
2023-04-02T08:54:17.352Z,6.76
2023-04-02T08:56:50.174Z,6.73
2023-04-02T08:59:24.447Z,6.70
2023-04-02T09:01:57.452Z,6.74
2023-04-02T09:04:26.583Z,6.67
2023-04-02T09:06:56.618Z,6.73
2023-04-02T09:09:24.765Z,6.73
2023-04-02T09:11:55.310Z,6.72
2023-04-02T09:14:26.325Z,6.73
2023-04-02T09:16:55.304Z,6.79
2023-04-02T09:19:24.650Z,6.82
2023-04-02T09:22:08.957Z,6.85
2023-04-02T09:24:37.501Z,6.89
2023-04-02T09:27:05.029Z,6.93
2023-04-02T09:29:46.340Z,6.88
2023-04-02T09:32:28.760Z,6.92
2023-04-02T09:35:24.788Z,7.00
2023-04-02T09:38:17.411Z,7.06
2023-04-02T09:40:47.677Z,7.10
2023-04-02T09:43:17.530Z,7.13
2023-04-02T09:45:46.037Z,7.15
2023-04-02T09:48:22.808Z,7.23
2023-04-02T09:50:50.426Z,7.26
2023-04-02T09:53:29.324Z,7.33
2023-04-02T09:56:10.602Z,7.42
2023-04-02T09:58:38.214Z,7.37
2023-04-02T10:01:08.458Z,7.39
2023-04-02T10:03:36.572Z,7.46
2023-04-02T10:06:11.342Z,7.54
2023-04-02T10:08:42.276Z,7.65
2023-04-02T10:11:11.982Z,7.66
2023-04-02T10:13:44.841Z,7.62
2023-04-02T10:16:14.438Z,7.65
2023-04-02T10:18:46.531Z,7.70
2023-04-02T10:21:17.074Z,7.89
2023-04-02T10:23:46.347Z,7.93
2023-04-02T10:26:23.713Z,7.81
2023-04-02T10:29:06.763Z,7.90
2023-04-02T10:31:41.026Z,7.94
2023-04-02T10:34:14.013Z,7.76
2023-04-02T10:36:50.513Z,7.77
2023-04-02T10:39:21.258Z,7.78
2023-04-02T10:41:53.269Z,7.78
2023-04-02T10:44:31.120Z,7.77
2023-04-02T10:47:15.874Z,7.72
2023-04-02T10:49:44.715Z,7.81
2023-04-02T10:52:17.538Z,7.86
2023-04-02T10:54:50.572Z,7.84
2023-04-02T10:57:25.941Z,7.67
2023-04-02T10:59:57.408Z,7.57
2023-04-02T11:02:35.933Z,7.60
2023-04-02T11:05:11.827Z,7.66
2023-04-02T11:07:50.855Z,7.65
2023-04-02T11:10:20.755Z,7.74
2023-04-02T11:12:53.255Z,7.80
2023-04-02T11:15:20.928Z,7.78
2023-04-02T11:17:49.013Z,7.76
2023-04-02T11:20:57.195Z,7.67
2023-04-02T11:23:28.333Z,7.63
2023-04-02T11:26:31.028Z,7.63
2023-04-02T11:29:26.014Z,7.69
2023-04-02T11:32:21.689Z,7.73
2023-04-02T11:35:20.728Z,7.84
2023-04-02T11:37:48.265Z,7.72
2023-04-02T11:40:42.043Z,7.60
2023-04-02T11:43:47.007Z,7.53
2023-04-02T11:46:49.010Z,7.41
2023-04-02T11:49:41.975Z,7.33
2023-04-02T11:52:22.669Z,7.29
2023-04-02T11:54:57.755Z,7.32
2023-04-02T11:57:35.640Z,7.29
2023-04-02T12:00:18.170Z,7.48
2023-04-02T12:02:59.547Z,7.59
2023-04-02T12:05:28.481Z,7.63
2023-04-02T12:08:07.414Z,7.63
2023-04-02T12:10:51.422Z,7.70
2023-04-02T12:13:20.669Z,7.75
2023-04-02T12:15:48.767Z,7.85
2023-04-02T12:18:20.698Z,7.71
2023-04-02T12:20:50.866Z,7.68
2023-04-02T12:23:24.033Z,7.64
2023-04-02T12:25:58.282Z,7.73
2023-04-02T12:28:28.893Z,7.87
2023-04-02T12:31:04.457Z,7.91
2023-04-02T12:33:37.277Z,8.08
2023-04-02T12:36:09.809Z,8.08
2023-04-02T12:38:45.223Z,8.01
2023-04-02T12:41:24.037Z,7.96
2023-04-02T12:43:58.475Z,7.99
2023-04-02T12:46:26.826Z,7.99
2023-04-02T12:48:56.777Z,7.97
2023-04-02T12:51:25.324Z,7.83
2023-04-02T12:53:54.324Z,7.67
2023-04-02T12:56:23.070Z,7.72
2023-04-02T12:58:54.831Z,7.67
2023-04-02T13:01:24.609Z,7.67
2023-04-02T13:04:04.637Z,7.65
2023-04-02T13:06:32.794Z,7.74
2023-04-02T13:09:01.262Z,7.81
2023-04-02T13:11:36.633Z,7.70
2023-04-02T13:14:05.848Z,7.56
2023-04-02T13:16:37.469Z,7.49
2023-04-02T13:19:22.722Z,7.36
2023-04-02T13:21:50.359Z,7.28
2023-04-02T13:24:19.852Z,7.23
2023-04-02T13:26:49.415Z,7.20
2023-04-02T13:29:26.314Z,7.18
2023-04-02T13:31:55.663Z,7.18
2023-04-02T13:34:24.820Z,7.08
2023-04-02T13:36:52.474Z,7.06
2023-04-02T13:39:20.459Z,7.09
2023-04-02T13:41:50.022Z,7.07
2023-04-02T13:44:22.828Z,7.14
2023-04-02T13:46:50.905Z,7.17
2023-04-02T13:49:18.876Z,7.11
2023-04-02T13:51:49.634Z,7.21
2023-04-02T13:54:22.307Z,7.15
2023-04-02T13:56:49.879Z,7.14
2023-04-02T13:59:17.456Z,7.01
2023-04-02T14:01:46.353Z,7.03
2023-04-02T14:04:16.318Z,6.95
2023-04-02T14:07:07.515Z,6.92
2023-04-02T14:09:40.343Z,6.95
2023-04-02T14:12:12.377Z,6.97
2023-04-02T14:14:56.175Z,7.09
2023-04-02T14:17:30.774Z,7.00
2023-04-02T14:20:13.478Z,7.02
2023-04-02T14:22:50.605Z,7.00
2023-04-02T14:25:25.834Z,6.94
2023-04-02T14:27:58.768Z,6.93
2023-04-02T14:30:28.657Z,6.92
2023-04-02T14:32:59.103Z,6.87
2023-04-02T14:35:30.564Z,6.84
2023-04-02T14:38:06.058Z,6.90
2023-04-02T14:40:37.519Z,6.79
2023-04-02T14:43:08.330Z,6.72
2023-04-02T14:45:48.292Z,6.81
2023-04-02T14:48:25.699Z,6.69
2023-04-02T14:50:56.456Z,6.63
2023-04-02T14:53:28.559Z,6.69
2023-04-02T14:55:57.204Z,6.60
2023-04-02T14:58:27.785Z,6.62
2023-04-02T15:00:59.034Z,6.59
2023-04-02T15:03:30.813Z,6.60
2023-04-02T15:06:00.193Z,6.55
2023-04-02T15:08:30.972Z,6.61
2023-04-02T15:11:05.698Z,6.53
2023-04-02T15:13:37.991Z,6.54
2023-04-02T15:16:11.568Z,6.48
2023-04-02T15:18:39.323Z,6.43
2023-04-02T15:21:16.495Z,6.42
2023-04-02T15:23:54.826Z,6.32
2023-04-02T15:26:27.099Z,6.27
2023-04-02T15:29:01.002Z,6.17
2023-04-02T15:31:29.280Z,6.20
2023-04-02T15:34:09.083Z,6.13
2023-04-02T15:37:09.179Z,6.08
2023-04-02T15:39:59.511Z,6.09
2023-04-02T15:42:29.255Z,6.03
2023-04-02T15:45:25.581Z,5.97
2023-04-02T15:48:14.879Z,5.95
2023-04-02T15:50:48.162Z,5.98
2023-04-02T15:53:27.817Z,5.96
2023-04-02T15:56:03.177Z,5.91
2023-04-02T15:58:44.298Z,5.99
2023-04-02T16:01:16.314Z,5.93
2023-04-02T16:04:07.789Z,5.89
2023-04-02T16:06:43.322Z,5.81
2023-04-02T16:09:19.454Z,5.88
2023-04-02T16:11:48.779Z,5.89
2023-04-02T16:14:25.629Z,5.85
2023-04-02T16:16:54.713Z,5.86
2023-04-02T16:19:27.348Z,5.93
2023-04-02T16:22:02.432Z,5.89
2023-04-02T16:24:29.911Z,5.83
2023-04-02T16:27:04.669Z,5.91
2023-04-02T16:29:53.380Z,5.89
2023-04-02T16:32:35.899Z,5.84
2023-04-02T16:35:33.432Z,5.83
2023-04-02T16:38:07.738Z,5.76
2023-04-02T16:40:45.165Z,5.85
2023-04-02T16:43:26.019Z,5.87
2023-04-02T16:45:57.740Z,5.80
2023-04-02T16:48:30.789Z,5.76
2023-04-02T16:51:06.928Z,5.77
2023-04-02T16:53:50.952Z,5.79
2023-04-02T16:56:41.515Z,5.82
2023-04-02T16:59:16.698Z,5.80
2023-04-02T17:01:48.992Z,5.82
2023-04-02T17:04:29.087Z,5.79
2023-04-02T17:07:01.899Z,5.88
2023-04-02T17:09:35.424Z,5.80
2023-04-02T17:12:06.122Z,5.78
2023-04-02T17:14:39.308Z,5.79
2023-04-02T17:17:06.835Z,5.85
2023-04-02T17:19:34.350Z,5.79
2023-04-02T17:22:03.414Z,5.78
2023-04-02T17:24:34.748Z,5.76
2023-04-02T17:27:08.224Z,5.81
2023-04-02T17:29:39.243Z,5.79
2023-04-02T17:32:14.895Z,5.83
2023-04-02T17:34:42.309Z,5.83
2023-04-02T17:37:19.153Z,5.79
2023-04-02T17:39:53.726Z,5.77
2023-04-02T17:42:26.469Z,5.80
2023-04-02T17:45:02.896Z,5.88
2023-04-02T17:47:36.790Z,5.84
2023-04-02T17:50:40.266Z,5.82
2023-04-02T17:53:18.870Z,5.80
2023-04-02T17:55:53.839Z,5.73
2023-04-02T17:58:36.650Z,5.71
2023-04-02T18:01:08.144Z,5.71
2023-04-02T18:03:49.117Z,5.71
2023-04-02T18:06:20.863Z,5.73
2023-04-02T18:08:58.469Z,5.74
2023-04-02T18:11:32.555Z,5.73
2023-04-02T18:14:01.225Z,5.67
2023-04-02T18:16:49.514Z,5.65
2023-04-02T18:19:19.002Z,5.61
2023-04-02T18:21:52.214Z,5.58
2023-04-02T18:24:43.257Z,5.57
2023-04-02T18:27:22.497Z,5.57
2023-04-02T18:29:56.301Z,5.53
2023-04-02T18:32:56.781Z,5.57
2023-04-02T18:35:26.578Z,5.61
2023-04-02T18:38:07.778Z,5.60
2023-04-02T18:40:41.839Z,5.63
2023-04-02T18:43:19.984Z,5.60
2023-04-02T18:45:56.985Z,5.66
2023-04-02T18:48:35.366Z,5.60
2023-04-02T18:51:04.319Z,5.61
2023-04-02T18:53:33.730Z,5.62
2023-04-02T18:56:04.713Z,5.61
2023-04-02T18:58:37.322Z,5.60
2023-04-02T19:01:05.651Z,5.64
2023-04-02T19:03:39.215Z,5.63
2023-04-02T19:06:10.397Z,5.62
2023-04-02T19:08:42.912Z,5.60
2023-04-02T19:11:13.815Z,5.61
2023-04-02T19:13:41.510Z,5.60
2023-04-02T19:16:22.653Z,5.59
2023-04-02T19:18:57.384Z,5.70
2023-04-02T19:21:34.979Z,5.67
2023-04-02T19:24:12.235Z,5.65
2023-04-02T19:26:45.310Z,5.65
2023-04-02T19:29:21.262Z,5.69
2023-04-02T19:31:51.067Z,5.70
2023-04-02T19:34:24.399Z,5.68
2023-04-02T19:36:55.568Z,5.67
2023-04-02T19:39:39.514Z,5.63
2023-04-02T19:42:11.983Z,5.62
2023-04-02T19:44:44.030Z,5.63
2023-04-02T19:47:13.481Z,5.64
2023-04-02T19:49:42.305Z,5.65
2023-04-02T19:52:09.784Z,5.66
2023-04-02T19:54:38.450Z,5.66
2023-04-02T19:57:06.375Z,5.70
2023-04-02T19:59:34.089Z,5.72
2023-04-02T20:02:05.704Z,5.74
2023-04-02T20:04:33.324Z,5.70
2023-04-02T20:07:02.153Z,5.69
2023-04-02T20:09:30.130Z,5.70
2023-04-02T20:11:57.602Z,5.70
2023-04-02T20:14:25.122Z,5.65
2023-04-02T20:16:52.796Z,5.63
2023-04-02T20:19:20.592Z,5.61
2023-04-02T20:21:48.093Z,5.55
2023-04-02T20:24:16.936Z,5.62
2023-04-02T20:26:44.396Z,5.56
2023-04-02T20:29:11.892Z,5.55
2023-04-02T20:31:39.421Z,5.53
2023-04-02T20:34:08.518Z,5.54
2023-04-02T20:36:36.365Z,5.46
2023-04-02T20:39:07.105Z,5.48
2023-04-02T20:41:35.930Z,5.44
2023-04-02T20:44:03.397Z,5.39
2023-04-02T20:46:31.078Z,5.37
2023-04-02T20:48:58.585Z,5.36
2023-04-02T20:51:26.406Z,5.34
2023-04-02T20:53:53.992Z,5.31
2023-04-02T20:56:23.229Z,5.33
2023-04-02T20:58:52.060Z,5.29
2023-04-02T21:01:21.165Z,5.24
2023-04-02T21:03:49.190Z,5.18
2023-04-02T21:06:18.978Z,5.15
2023-04-02T21:08:46.784Z,5.12
2023-04-02T21:11:14.384Z,5.16
2023-04-02T21:13:44.026Z,5.10
2023-04-02T21:16:17.062Z,5.19
2023-04-02T21:18:44.995Z,5.21
2023-04-02T21:21:14.238Z,5.25
2023-04-02T21:23:42.577Z,5.18
2023-04-02T21:26:12.567Z,5.25
2023-04-02T21:28:40.332Z,5.28
2023-04-02T21:31:10.678Z,5.24
2023-04-02T21:33:41.267Z,5.23
2023-04-02T21:36:10.279Z,5.24
2023-04-02T21:38:38.446Z,5.26
2023-04-02T21:41:14.595Z,5.26
2023-04-02T21:43:42.254Z,5.26
2023-04-02T21:46:10.311Z,5.29
2023-04-02T21:48:40.516Z,5.26
2023-04-02T21:51:09.544Z,5.29
2023-04-02T21:53:37.406Z,5.28
2023-04-02T21:56:06.337Z,5.30
2023-04-02T21:58:33.998Z,5.30
2023-04-02T22:01:01.871Z,5.21
2023-04-02T22:03:31.936Z,5.25
2023-04-02T22:06:06.698Z,5.19
2023-04-02T22:08:34.661Z,5.15
2023-04-02T22:11:07.361Z,5.19
2023-04-02T22:13:34.878Z,5.23
2023-04-02T22:16:05.681Z,5.19
2023-04-02T22:18:34.997Z,5.27
2023-04-02T22:21:03.909Z,5.30
2023-04-02T22:23:31.430Z,5.28
2023-04-02T22:25:59.849Z,5.30
2023-04-02T22:28:28.176Z,5.25
2023-04-02T22:30:56.219Z,5.25
2023-04-02T22:33:23.782Z,5.21
2023-04-02T22:35:52.354Z,5.22
2023-04-02T22:38:21.240Z,5.30
2023-04-02T22:40:48.697Z,5.31
2023-04-02T22:43:16.228Z,5.34
2023-04-02T22:45:45.483Z,5.29
2023-04-02T22:48:12.927Z,5.26
2023-04-02T22:50:40.550Z,5.22
2023-04-02T22:53:08.047Z,5.30
2023-04-02T22:55:36.870Z,5.29
2023-04-02T22:58:04.291Z,5.30
2023-04-02T23:00:31.852Z,5.29
2023-04-02T23:02:59.399Z,5.30
2023-04-02T23:05:27.136Z,5.35
2023-04-02T23:07:54.724Z,5.36
2023-04-02T23:10:22.250Z,5.32
2023-04-02T23:12:51.133Z,5.30
2023-04-02T23:15:18.706Z,5.16
2023-04-02T23:17:46.212Z,5.15
2023-04-02T23:20:14.042Z,5.09
2023-04-02T23:22:41.550Z,5.17
2023-04-02T23:25:09.322Z,5.17
2023-04-02T23:27:36.968Z,5.26
2023-04-02T23:30:08.664Z,5.25
2023-04-02T23:32:36.168Z,5.25
2023-04-02T23:35:03.650Z,5.27
2023-04-02T23:37:31.270Z,5.20
2023-04-02T23:39:58.739Z,5.23
2023-04-02T23:42:27.237Z,5.17
2023-04-02T23:44:55.485Z,5.16
2023-04-02T23:47:24.271Z,5.11
2023-04-02T23:49:51.730Z,5.10
2023-04-02T23:52:19.350Z,5.12
2023-04-02T23:54:46.766Z,5.16
2023-04-02T23:57:14.971Z,5.14
2023-04-02T23:59:42.574Z,5.17
